Time;durP1;ratioP1;P1;durP2;ratioP2;P2;SDS_P1;SDS_P2;PMS_P1;PMS_P2;Temp;Humidity;BMP_temperature;BMP_pressure;BME280_temperature;BME280_humidity;BME280_pressure;Samples;Min_cycle;Max_cycle;Signal;HPM_P1;HPM_P2
2022/06/16 00:00:32;;;;;;;3.85;1.83;;;13.10;81.70;;;;;;5092631;28;20478;-82
2022/06/16 00:02:57;;;;;;;6.45;1.85;;;13.10;81.90;;;;;;5118087;28;20103;-83
2022/06/16 00:05:26;;;;;;;4.63;1.58;;;13.10;82.10;;;;;;5118221;28;20063;-81
2022/06/16 00:07:51;;;;;;;3.92;1.30;;;13.10;82.10;;;;;;5096633;28;20024;-81
2022/06/16 00:10:18;;;;;;;4.57;1.80;;;13.10;81.90;;;;;;5099192;28;20031;-82
2022/06/16 00:12:44;;;;;;;4.68;1.70;;;13.00;81.60;;;;;;5118373;27;20048;-82
2022/06/16 00:15:16;;;;;;;4.05;1.80;;;13.10;82.00;;;;;;5115368;28;20490;-82
2022/06/16 00:17:41;;;;;;;5.68;1.52;;;13.00;82.40;;;;;;5101634;27;20055;-82
2022/06/16 00:20:08;;;;;;;5.13;1.40;;;13.00;82.40;;;;;;5113882;27;20028;-82
2022/06/16 00:22:35;;;;;;;6.10;1.70;;;12.90;82.40;;;;;;5099756;28;20516;-82
2022/06/16 00:25:00;;;;;;;3.90;1.50;;;12.80;83.10;;;;;;5098433;28;20023;-82
2022/06/16 00:27:26;;;;;;;4.28;1.52;;;12.80;83.30;;;;;;5110965;28;20050;-82
2022/06/16 00:29:52;;;;;;;6.47;1.83;;;12.80;83.20;;;;;;5103630;28;20027;-82
2022/06/16 00:32:17;;;;;;;4.93;1.70;;;12.80;83.70;;;;;;5102043;28;20073;-82
2022/06/16 00:34:43;;;;;;;9.13;1.55;;;12.80;83.60;;;;;;5096678;28;20067;-82
2022/06/16 00:37:08;;;;;;;3.40;1.38;;;12.70;83.30;;;;;;5091184;28;20016;-82
2022/06/16 00:39:34;;;;;;;4.45;1.60;;;12.70;83.80;;;;;;5117441;28;20047;-82
2022/06/16 00:42:23;;;;;;;3.97;1.67;;;12.80;83.90;;;;;;5110234;27;20032;-82
2022/06/16 00:44:51;;;;;;;5.45;1.60;;;12.70;84.00;;;;;;5099328;28;20062;-82
2022/06/16 00:47:19;;;;;;;3.85;1.77;;;12.60;84.00;;;;;;5118781;27;20028;-82
2022/06/16 00:49:47;;;;;;;5.07;1.90;;;12.60;84.40;;;;;;5116350;28;20501;-82
2022/06/16 00:52:16;;;;;;;3.60;1.63;;;12.60;84.30;;;;;;5101038;28;20047;-82
2022/06/16 00:54:51;;;;;;;2.92;1.60;;;12.60;84.60;;;;;;5101000;28;20028;-82
2022/06/16 00:57:21;;;;;;;3.90;1.33;;;12.50;85.00;;;;;;5118662;28;20059;-82
2022/06/16 00:59:47;;;;;;;6.67;1.80;;;12.60;85.30;;;;;;5121312;28;20114;-83
2022/06/16 01:02:13;;;;;;;4.88;2.10;;;12.60;85.30;;;;;;5099961;28;20054;-82
2022/06/16 01:04:51;;;;;;;2.75;1.30;;;12.70;85.50;;;;;;5099017;28;20032;-82
2022/06/16 01:07:30;;;;;;;4.85;1.77;;;12.70;84.60;;;;;;5101470;27;20054;-82
2022/06/16 01:09:57;;;;;;;4.45;1.73;;;12.60;85.50;;;;;;5100709;28;20027;-82
2022/06/16 01:15:33;;;;;;;4.35;1.63;;;12.80;85.50;;;;;;5114411;28;20059;-82
2022/06/16 01:18:09;;;;;;;3.38;1.50;;;12.80;85.40;;;;;;5098864;28;20096;-82
2022/06/16 01:20:47;;;;;;;5.38;1.80;;;12.80;85.00;;;;;;5095260;28;20074;-82
2022/06/16 01:23:50;;;;;;;3.95;1.70;;;12.80;85.50;;;;;;5102026;28;20032;-82
2022/06/16 01:26:50;;;;;;;4.45;1.70;;;12.70;85.60;;;;;;5098261;28;20028;-82
2022/06/16 01:29:29;;;;;;;4.63;1.65;;;12.70;85.60;;;;;;5115762;27;20024;-82
2022/06/16 01:32:19;;;;;;;4.82;1.60;;;12.70;85.50;;;;;;5094229;28;20073;-82
2022/06/16 01:34:52;;;;;;;4.57;1.88;;;12.60;86.00;;;;;;5098160;28;20024;-82
2022/06/16 01:37:41;;;;;;;4.93;2.10;;;12.70;85.90;;;;;;5096239;28;20039;-82
2022/06/16 01:40:12;;;;;;;4.15;1.65;;;12.60;86.00;;;;;;5106440;28;20111;-82
2022/06/16 01:42:42;;;;;;;;;;;12.50;86.00;;;;;;5097377;28;20460;-82
2022/06/16 01:45:20;;;;;;;3.63;2.05;;;12.50;86.20;;;;;;5118588;28;19961;-82
2022/06/16 01:47:49;;;;;;;3.85;1.60;;;12.40;86.50;;;;;;5098685;27;20077;-82
2022/06/16 01:50:32;;;;;;;3.38;1.92;;;12.40;86.70;;;;;;5106122;28;20031;-82
2022/06/16 01:53:10;;;;;;;5.28;2.28;;;12.40;86.30;;;;;;5099205;28;20031;-82
2022/06/16 01:55:41;;;;;;;4.90;1.75;;;12.30;86.90;;;;;;5099727;28;20043;-82
2022/06/16 01:58:12;;;;;;;5.45;1.60;;;12.40;86.90;;;;;;5098368;28;20028;-82
2022/06/16 02:00:38;;;;;;;2.42;1.65;;;12.40;86.70;;;;;;5102695;27;20032;-82
2022/06/16 02:03:08;;;;;;;4.10;1.45;;;12.40;86.50;;;;;;5112580;28;20463;-82
2022/06/16 02:05:37;;;;;;;5.82;2.00;;;12.40;86.80;;;;;;5095833;28;20031;-82
2022/06/16 02:08:13;;;;;;;5.00;2.08;;;12.40;86.70;;;;;;5096862;28;20020;-82
2022/06/16 02:10:43;;;;;;;4.18;1.80;;;12.40;86.90;;;;;;5102661;27;20019;-82
2022/06/16 02:13:12;;;;;;;3.83;1.80;;;12.30;87.00;;;;;;5100012;28;20051;-82
2022/06/16 02:16:01;;;;;;;6.65;2.15;;;12.30;86.90;;;;;;5115865;28;20031;-82
2022/06/16 02:18:33;;;;;;;5.55;2.05;;;12.30;87.30;;;;;;5113476;27;20391;-83
2022/06/16 02:21:10;;;;;;;3.58;1.92;;;12.30;87.20;;;;;;5114233;27;20077;-82
2022/06/16 02:23:36;;;;;;;4.03;2.00;;;12.30;87.20;;;;;;5099090;27;20080;-82
2022/06/16 02:26:01;;;;;;;6.90;2.53;;;12.30;86.80;;;;;;5102188;28;20035;-82
2022/06/16 02:28:28;;;;;;;6.28;1.88;;;12.30;86.80;;;;;;5100020;28;20024;-82
2022/06/16 02:31:24;;;;;;;6.32;2.13;;;12.30;86.80;;;;;;5095350;28;20019;-82
2022/06/16 02:34:23;;;;;;;4.00;1.90;;;12.30;87.60;;;;;;5098419;28;20146;-82
2022/06/16 02:37:08;;;;;;;5.13;2.30;;;12.20;87.60;;;;;;5115677;28;20702;-82
2022/06/16 02:40:03;;;;;;;6.72;2.05;;;12.10;87.70;;;;;;5100272;28;20024;-82
2022/06/16 02:42:51;;;;;;;3.03;1.92;;;12.10;87.70;;;;;;5098376;28;20598;-82
2022/06/16 02:45:33;;;;;;;6.45;2.05;;;12.10;87.70;;;;;;5099296;28;20084;-82
2022/06/16 02:48:12;;;;;;;5.07;2.00;;;12.00;87.50;;;;;;5099766;28;20063;-82
2022/06/16 02:50:50;;;;;;;4.07;1.83;;;12.00;87.80;;;;;;5112561;28;20024;-82
2022/06/16 02:54:09;;;;;;;6.20;2.40;;;11.90;88.20;;;;;;5119208;28;20070;-83
2022/06/16 02:56:39;;;;;;;4.55;2.05;;;11.90;88.50;;;;;;5097997;28;20122;-83
2022/06/16 02:59:17;;;;;;;5.60;2.65;;;11.90;88.60;;;;;;5093984;28;20035;-83
2022/06/16 03:01:42;;;;;;;3.88;2.00;;;11.90;88.80;;;;;;5101543;28;20035;-82
2022/06/16 03:04:15;;;;;;;9.70;2.63;;;11.90;88.70;;;;;;5115608;28;20061;-82
2022/06/16 03:06:41;;;;;;;4.82;2.20;;;12.00;88.50;;;;;;5114855;28;20046;-82
2022/06/16 03:09:07;;;;;;;7.47;2.35;;;12.00;88.50;;;;;;5113804;28;20517;-82
2022/06/16 03:11:33;;;;;;;6.82;2.25;;;12.00;88.90;;;;;;5114543;28;20468;-83
2022/06/16 03:13:59;;;;;;;4.90;2.10;;;12.00;88.60;;;;;;5102692;28;20044;-83
2022/06/16 03:16:25;;;;;;;6.25;2.50;;;12.10;89.20;;;;;;5108940;28;20378;-82
2022/06/16 03:18:51;;;;;;;3.28;2.08;;;12.10;88.90;;;;;;5111803;28;20036;-83
2022/06/16 03:21:17;;;;;;;4.70;2.17;;;12.10;88.70;;;;;;5098022;28;20541;-82
2022/06/16 03:23:43;;;;;;;5.47;2.55;;;12.20;88.80;;;;;;5114247;28;20084;-82
2022/06/16 03:26:08;;;;;;;5.53;2.30;;;12.20;88.50;;;;;;5094980;28;20087;-83
2022/06/16 03:28:34;;;;;;;4.18;2.00;;;12.20;88.80;;;;;;5097038;28;20104;-83
2022/06/16 03:31:00;;;;;;;3.63;2.30;;;12.20;88.60;;;;;;5094914;28;20024;-83
2022/06/16 03:33:25;;;;;;;3.35;2.08;;;12.20;88.60;;;;;;5097876;28;20058;-83
2022/06/16 03:35:51;;;;;;;4.55;2.20;;;12.20;88.50;;;;;;5101434;28;20034;-83
2022/06/16 03:40:43;;;;;;;4.43;2.10;;;12.30;88.70;;;;;;5119279;28;20027;-82
2022/06/16 03:43:09;;;;;;;3.72;2.28;;;12.30;88.50;;;;;;5108897;27;20034;-82
2022/06/16 03:45:37;;;;;;;6.20;2.40;;;12.40;88.30;;;;;;5098558;28;20023;-83
2022/06/16 03:48:04;;;;;;;5.13;2.80;;;12.50;88.50;;;;;;5112744;27;20351;-82
2022/06/16 03:50:30;;;;;;;4.75;2.30;;;12.50;88.30;;;;;;5088232;28;20631;-82
2022/06/16 03:52:55;;;;;;;6.47;2.45;;;12.60;88.30;;;;;;5097420;28;20042;-82
2022/06/16 03:55:21;;;;;;;5.88;2.67;;;12.60;88.20;;;;;;5096290;28;20027;-83
2022/06/16 03:57:47;;;;;;;4.43;2.42;;;12.60;88.00;;;;;;5099782;28;20123;-83
2022/06/16 04:00:14;;;;;;;4.15;2.38;;;12.60;88.10;;;;;;5089764;28;20023;-83
2022/06/16 04:02:39;;;;;;;4.30;2.25;;;12.60;88.30;;;;;;5109640;27;20035;-82
2022/06/16 04:05:07;;;;;;;5.65;2.22;;;12.60;88.40;;;;;;5099619;28;20026;-82
2022/06/16 04:07:34;;;;;;;5.75;2.30;;;12.60;88.10;;;;;;5094996;28;20041;-82
2022/06/16 04:09:59;;;;;;;4.82;2.28;;;12.60;88.30;;;;;;5122754;27;20106;-83
2022/06/16 04:12:25;;;;;;;5.97;2.30;;;12.60;88.20;;;;;;5118705;28;20060;-82
2022/06/16 04:14:50;;;;;;;10.52;2.15;;;12.60;87.80;;;;;;5112812;28;20468;-82
2022/06/16 04:17:16;;;;;;;3.75;2.20;;;12.70;88.10;;;;;;5093965;28;20023;-82
2022/06/16 04:20:11;;;;;;;12.80;3.15;;;12.80;88.10;;;;;;5100374;28;20038;-82
2022/06/16 04:22:27;;;;;;;4.85;1.92;;;12.80;87.70;;;;;;5112808;27;20024;-82
2022/06/16 04:24:53;;;;;;;8.90;2.30;;;12.90;87.90;;;;;;5116315;28;20047;-81
2022/06/16 04:27:19;;;;;;;3.83;2.30;;;12.90;87.60;;;;;;5116673;27;20015;-81
2022/06/16 04:29:44;;;;;;;5.88;2.35;;;13.00;87.20;;;;;;5112419;27;20086;-81
2022/06/16 04:32:10;;;;;;;5.30;2.20;;;13.00;87.10;;;;;;5091622;28;20023;-81
2022/06/16 04:34:37;;;;;;;5.20;2.50;;;13.20;87.10;;;;;;5097000;28;20026;-81
2022/06/16 04:37:03;;;;;;;4.93;2.33;;;13.10;86.40;;;;;;5110490;28;20043;-81
2022/06/16 04:39:28;;;;;;;5.60;2.25;;;13.20;86.90;;;;;;5104208;28;20024;-81
2022/06/16 04:41:54;;;;;;;5.70;2.50;;;13.30;86.30;;;;;;5088522;28;20034;-81
2022/06/16 04:44:19;;;;;;;3.35;2.20;;;13.40;86.70;;;;;;5099276;28;20432;-81
2022/06/16 04:46:45;;;;;;;8.25;2.13;;;13.50;86.50;;;;;;5117560;28;20031;-82
2022/06/16 04:49:11;;;;;;;4.38;2.28;;;13.60;86.10;;;;;;5113086;27;20088;-82
2022/06/16 04:51:37;;;;;;;7.38;2.47;;;13.60;85.60;;;;;;5111138;27;20027;-83
2022/06/16 04:54:03;;;;;;;7.13;2.42;;;13.80;85.80;;;;;;5099419;28;20036;-83
2022/06/16 04:56:29;;;;;;;5.25;2.00;;;13.80;85.10;;;;;;5096796;27;20027;-83
2022/06/16 04:58:54;;;;;;;5.00;2.40;;;13.90;85.20;;;;;;5110600;28;20027;-82
2022/06/16 05:01:20;;;;;;;5.80;2.55;;;13.90;85.20;;;;;;5118733;27;20049;-82
2022/06/16 05:03:46;;;;;;;5.20;2.22;;;13.90;85.10;;;;;;5098967;28;20053;-82
2022/06/16 05:06:11;;;;;;;4.70;2.03;;;14.00;85.30;;;;;;5110609;28;20025;-82
2022/06/16 05:08:37;;;;;;;6.68;2.20;;;14.10;84.50;;;;;;5115592;28;20028;-82
2022/06/16 05:11:02;;;;;;;7.78;2.35;;;14.10;84.30;;;;;;5114568;27;20049;-82
2022/06/16 05:13:28;;;;;;;7.32;2.22;;;14.20;84.70;;;;;;5109770;28;20460;-82
2022/06/16 05:15:54;;;;;;;3.63;1.73;;;14.20;84.30;;;;;;5105624;28;20049;-83
2022/06/16 05:18:20;;;;;;;3.25;1.85;;;14.20;84.10;;;;;;5099518;28;20024;-82
2022/06/16 05:20:46;;;;;;;4.32;2.05;;;14.10;84.00;;;;;;5112523;28;20043;-82
2022/06/16 05:23:12;;;;;;;6.82;2.08;;;14.30;84.30;;;;;;5111122;27;20031;-82
2022/06/16 05:25:39;;;;;;;5.70;1.95;;;14.20;84.20;;;;;;5093808;27;20035;-82
2022/06/16 05:28:05;;;;;;;5.47;2.33;;;14.20;84.10;;;;;;5092981;28;20418;-82
2022/06/16 05:30:31;;;;;;;7.43;2.38;;;14.10;83.90;;;;;;5107976;28;20026;-83
2022/06/16 05:32:57;;;;;;;3.90;1.80;;;14.00;84.40;;;;;;5098444;28;20035;-82
2022/06/16 05:35:23;;;;;;;4.85;2.10;;;14.00;85.10;;;;;;5098665;28;20027;-83
2022/06/16 05:37:48;;;;;;;4.93;2.00;;;14.10;85.10;;;;;;5114318;27;20027;-83
2022/06/16 05:40:14;;;;;;;5.75;2.30;;;14.00;85.00;;;;;;5090916;28;20053;-83
2022/06/16 05:42:39;;;;;;;7.45;2.17;;;14.00;85.00;;;;;;5108742;27;20433;-82
2022/06/16 05:45:06;;;;;;;6.03;2.22;;;14.00;85.10;;;;;;5107960;28;20028;-83
2022/06/16 05:47:31;;;;;;;5.10;2.35;;;13.80;85.30;;;;;;5074507;28;20027;-83
2022/06/16 05:49:58;;;;;;;5.28;2.30;;;13.80;85.70;;;;;;5091347;27;20046;-83
2022/06/16 05:52:23;;;;;;;5.30;2.60;;;13.80;85.90;;;;;;5090376;28;20023;-83
2022/06/16 05:54:50;;;;;;;6.95;2.67;;;13.80;86.10;;;;;;5089720;28;20016;-82
2022/06/16 05:57:16;;;;;;;5.18;2.42;;;13.90;86.10;;;;;;5088166;28;20103;-83
2022/06/16 05:59:41;;;;;;;5.10;2.50;;;13.80;85.70;;;;;;5106739;28;20131;-84
2022/06/16 06:02:13;;;;;;;7.28;2.83;;;13.80;86.10;;;;;;5104870;28;20027;-83
2022/06/16 06:04:39;;;;;;;6.53;2.60;;;13.90;86.00;;;;;;5088975;28;20027;-83
2022/06/16 06:07:05;;;;;;;5.05;2.42;;;13.90;86.10;;;;;;5095572;28;20020;-83
2022/06/16 06:18:21;;;;;;;7.85;2.70;;;14.50;85.50;;;;;;5105700;28;20513;-83
2022/06/16 06:20:48;;;;;;;9.65;3.17;;;14.60;84.30;;;;;;5110441;28;20028;-83
2022/06/16 06:23:13;;;;;;;6.15;2.80;;;14.80;83.80;;;;;;5113923;28;20061;-83
2022/06/16 06:25:39;;;;;;;5.35;2.75;;;15.00;83.70;;;;;;5109632;27;20027;-83
2022/06/16 06:28:05;;;;;;;5.35;2.90;;;15.00;83.00;;;;;;5097300;28;20676;-83
2022/06/16 06:30:33;;;;;;;7.07;2.92;;;15.10;83.00;;;;;;5098512;28;20024;-83
2022/06/16 06:33:00;;;;;;;6.88;2.40;;;15.30;82.80;;;;;;5114544;28;20054;-83
2022/06/16 06:35:25;;;;;;;3.90;2.03;;;15.40;82.50;;;;;;5107946;28;20077;-83
2022/06/16 06:37:52;;;;;;;4.78;2.22;;;15.50;81.60;;;;;;5112151;28;20383;-83
2022/06/16 06:40:24;;;;;;;7.18;2.80;;;15.20;81.40;;;;;;5096612;28;20041;-83
2022/06/16 06:42:49;;;;;;;9.25;3.03;;;15.50;82.50;;;;;;5104918;28;20031;-82
2022/06/16 06:45:16;;;;;;;5.50;2.45;;;15.70;81.80;;;;;;5094107;28;20027;-82
2022/06/16 06:47:42;;;;;;;5.97;2.47;;;15.90;81.00;;;;;;5097914;28;20529;-83
2022/06/16 06:50:08;;;;;;;6.10;2.40;;;15.80;80.90;;;;;;5088669;28;20024;-82
2022/06/16 06:52:33;;;;;;;3.83;2.22;;;16.00;80.40;;;;;;5105513;28;20024;-83
2022/06/16 06:54:59;;;;;;;7.85;2.50;;;16.30;80.10;;;;;;5105885;28;20072;-83
2022/06/16 06:57:26;;;;;;;3.83;2.22;;;16.40;79.00;;;;;;5043307;28;20122;-83
2022/06/16 06:59:53;;;;;;;7.05;2.47;;;16.70;79.20;;;;;;5082079;28;20447;-83
2022/06/16 07:02:19;;;;;;;4.95;2.08;;;16.70;78.40;;;;;;5072448;28;20055;-83
2022/06/16 07:04:45;;;;;;;5.72;2.13;;;16.80;78.00;;;;;;5058591;28;20021;-83
2022/06/16 07:07:17;;;;;;;6.00;2.38;;;16.90;78.70;;;;;;5071435;28;20128;-83
2022/06/16 07:09:42;;;;;;;5.15;1.65;;;17.10;77.50;;;;;;5058543;28;20149;-82
2022/06/16 07:12:13;;;;;;;8.63;1.83;;;17.30;75.90;;;;;;5059635;28;20084;-83
2022/06/16 07:14:42;;;;;;;5.15;1.92;;;17.50;75.70;;;;;;5059259;28;20025;-83
2022/06/16 07:17:09;;;;;;;8.90;1.98;;;17.60;75.00;;;;;;5066479;28;20041;-83
2022/06/16 07:19:36;;;;;;;5.45;1.85;;;18.00;74.70;;;;;;5076398;28;20483;-83
2022/06/16 07:22:03;;;;;;;9.15;1.92;;;18.40;74.00;;;;;;5071252;28;20475;-83
2022/06/16 07:24:29;;;;;;;5.03;1.50;;;18.50;73.00;;;;;;5086091;28;20028;-83
2022/06/16 07:26:54;;;;;;;6.63;1.80;;;18.40;72.40;;;;;;5079180;28;20025;-83
2022/06/16 07:29:20;;;;;;;4.10;1.60;;;18.40;71.40;;;;;;5073325;28;20104;-83
2022/06/16 07:31:45;;;;;;;2.25;1.30;;;18.30;70.30;;;;;;5059044;28;20028;-83
2022/06/16 07:34:11;;;;;;;1.90;1.20;;;18.60;70.80;;;;;;5060177;28;20045;-82
2022/06/16 07:36:37;;;;;;;4.10;1.33;;;18.70;69.90;;;;;;5063992;28;20424;-82
2022/06/16 07:39:04;;;;;;;6.25;1.48;;;18.70;66.70;;;;;;5060168;28;20038;-82
2022/06/16 07:41:34;;;;;;;3.30;1.30;;;18.70;67.60;;;;;;5060963;28;20074;-82
2022/06/16 07:44:06;;;;;;;5.50;1.40;;;18.60;67.20;;;;;;5073044;28;20029;-83
2022/06/16 07:46:32;;;;;;;3.67;1.00;;;18.80;66.30;;;;;;5073276;28;20056;-83
2022/06/16 07:48:58;;;;;;;5.15;1.23;;;18.80;66.90;;;;;;5075238;28;20032;-83
2022/06/16 07:51:24;;;;;;;4.03;0.82;;;19.00;65.30;;;;;;5054790;28;20074;-83
2022/06/16 07:53:49;;;;;;;2.78;1.00;;;19.10;63.40;;;;;;5059832;28;20075;-83
2022/06/16 07:56:16;;;;;;;4.22;0.80;;;19.10;63.50;;;;;;5074336;28;20025;-82
2022/06/16 07:58:43;;;;;;;3.45;0.98;;;19.10;64.90;;;;;;5076969;28;20029;-83
2022/06/16 08:01:09;;;;;;;1.15;0.80;;;19.10;62.80;;;;;;5067751;28;20492;-83
2022/06/16 08:03:35;;;;;;;4.75;1.27;;;19.60;63.80;;;;;;5052608;28;20029;-83
2022/06/16 08:06:06;;;;;;;3.33;0.90;;;19.60;62.10;;;;;;5055233;28;20027;-83
2022/06/16 08:08:31;;;;;;;4.03;1.00;;;19.10;61.20;;;;;;5055405;28;20028;-82
2022/06/16 08:10:57;;;;;;;6.50;1.27;;;19.30;61.10;;;;;;5063912;28;20115;-82
2022/06/16 08:13:24;;;;;;;1.92;0.77;;;19.30;61.30;;;;;;5071438;28;20054;-82
2022/06/16 08:15:50;;;;;;;2.20;0.65;;;19.00;61.00;;;;;;5056616;28;20037;-82
2022/06/16 08:18:19;;;;;;;2.55;0.70;;;19.00;60.00;;;;;;5062887;28;20392;-82
2022/06/16 08:20:45;;;;;;;2.67;0.98;;;19.30;61.80;;;;;;5070837;28;20415;-82
2022/06/16 08:23:11;;;;;;;3.60;0.82;;;19.10;60.50;;;;;;5058491;28;20040;-82
2022/06/16 08:25:39;;;;;;;2.60;0.88;;;19.40;60.60;;;;;;5066167;28;20082;-82
2022/06/16 08:28:06;;;;;;;4.10;1.10;;;19.50;60.90;;;;;;5070016;28;20017;-82
2022/06/16 08:30:32;;;;;;;2.22;0.90;;;19.90;60.30;;;;;;5077677;28;20424;-82
2022/06/16 08:32:58;;;;;;;4.60;1.17;;;19.50;59.70;;;;;;5076576;28;20036;-82
2022/06/16 08:35:24;;;;;;;2.83;0.93;;;19.60;60.90;;;;;;5077681;28;20352;-82
2022/06/16 08:37:50;;;;;;;2.05;0.77;;;19.40;60.60;;;;;;5061946;28;20052;-82
2022/06/16 08:40:16;;;;;;;1.58;0.60;;;20.00;59.50;;;;;;5058620;28;20035;-82
2022/06/16 08:43:01;;;;;;;2.00;0.70;;;19.50;57.40;;;;;;5077217;28;20039;-82
2022/06/16 08:45:35;;;;;;;5.05;0.85;;;19.90;58.30;;;;;;5057492;28;20029;-82
2022/06/16 08:48:33;;;;;;;6.60;1.30;;;20.20;57.60;;;;;;5062030;28;20180;-82
2022/06/16 08:51:08;;;;;;;3.08;0.80;;;20.50;57.60;;;;;;5066832;28;20020;-82
2022/06/16 08:53:40;;;;;;;2.25;0.90;;;20.30;55.80;;;;;;5069721;28;20020;-82
2022/06/16 08:56:35;;;;;;;2.30;0.90;;;20.50;55.00;;;;;;5071848;28;20028;-82
2022/06/16 08:59:17;;;;;;;2.95;0.80;;;20.70;53.70;;;;;;5055585;28;20571;-83
2022/06/16 09:01:54;;;;;;;2.40;0.73;;;20.60;51.30;;;;;;5050923;28;20518;-83
2022/06/16 09:04:26;;;;;;;3.03;0.38;;;20.30;51.00;;;;;;5070656;28;20113;-82
2022/06/16 09:07:28;;;;;;;2.30;0.90;;;19.80;50.70;;;;;;5065813;28;20404;-83
2022/06/16 09:10:17;;;;;;;1.77;0.70;;;19.90;50.30;;;;;;5069262;28;20104;-82
2022/06/16 09:13:03;;;;;;;2.10;0.63;;;20.00;49.90;;;;;;5055563;28;20106;-83
2022/06/16 09:15:34;;;;;;;2.53;0.80;;;19.80;49.10;;;;;;5057550;28;20025;-83
2022/06/16 09:18:07;;;;;;;1.60;0.55;;;20.40;49.30;;;;;;5058512;28;20059;-83
2022/06/16 09:20:41;;;;;;;1.33;0.63;;;20.60;49.60;;;;;;5069083;28;20031;-82
2022/06/16 09:23:13;;;;;;;2.35;0.75;;;20.80;49.90;;;;;;5061804;28;20032;-82
2022/06/16 09:25:41;;;;;;;3.15;0.80;;;21.10;49.70;;;;;;5062862;28;20024;-83
2022/06/16 09:28:17;;;;;;;2.83;0.77;;;21.10;50.30;;;;;;5069308;28;20035;-83
2022/06/16 09:30:44;;;;;;;4.20;0.50;;;20.60;48.20;;;;;;5053929;28;20025;-83
2022/06/16 09:33:17;;;;;;;2.15;0.50;;;21.30;50.50;;;;;;5052446;28;20082;-83
2022/06/16 09:35:52;;;;;;;2.42;0.50;;;21.90;49.60;;;;;;5054117;28;20075;-82
2022/06/16 09:38:24;;;;;;;2.60;0.80;;;21.60;47.70;;;;;;5064408;28;20115;-82
2022/06/16 09:40:58;;;;;;;2.95;0.60;;;21.50;47.50;;;;;;5060154;28;20032;-84
2022/06/16 09:43:41;;;;;;;1.05;0.65;;;22.00;48.10;;;;;;5068020;28;20024;-84
2022/06/16 09:46:19;;;;;;;3.50;0.45;;;22.20;46.20;;;;;;5048159;28;20048;-83
2022/06/16 09:48:50;;;;;;;2.58;0.60;;;21.70;45.30;;;;;;5063379;28;20028;-83
2022/06/16 09:51:39;;;;;;;2.92;0.50;;;22.00;47.20;;;;;;5044826;28;20048;-83
2022/06/16 09:54:12;;;;;;;2.08;0.60;;;22.00;46.30;;;;;;5058696;28;20114;-83
2022/06/16 09:56:55;;;;;;;1.42;0.50;;;22.10;46.30;;;;;;5068470;28;20036;-83
2022/06/16 09:59:41;;;;;;;1.33;0.60;;;22.20;44.00;;;;;;5061496;28;20013;-83
2022/06/16 10:02:14;;;;;;;3.00;0.70;;;22.50;46.10;;;;;;5049769;28;20025;-83
2022/06/16 10:04:39;;;;;;;0.80;0.60;;;22.60;46.80;;;;;;5046309;28;20908;-83
2022/06/16 10:07:23;;;;;;;0.50;0.35;;;22.50;46.10;;;;;;5069661;28;20024;-83
2022/06/16 10:10:06;;;;;;;4.93;0.68;;;22.00;44.50;;;;;;5045922;28;20024;-83
2022/06/16 10:13:06;;;;;;;2.05;0.63;;;22.50;44.90;;;;;;5049806;28;20042;-82
2022/06/16 10:15:39;;;;;;;1.58;0.60;;;22.80;44.70;;;;;;5071050;28;20095;-82
2022/06/16 10:18:06;;;;;;;2.20;0.50;;;23.30;43.50;;;;;;5055966;28;20029;-83
2022/06/16 10:20:32;;;;;;;3.13;0.70;;;23.70;42.30;;;;;;5070822;28;20033;-84
2022/06/16 10:23:06;;;;;;;1.23;0.60;;;23.80;42.90;;;;;;5049467;28;20059;-83
2022/06/16 10:25:36;;;;;;;1.55;0.70;;;22.90;46.20;;;;;;5065259;28;20042;-83
2022/06/16 10:28:28;;;;;;;3.08;0.82;;;23.30;45.80;;;;;;5052530;28;20052;-84
2022/06/16 10:30:54;;;;;;;2.28;0.47;;;23.20;43.70;;;;;;5066835;28;20059;-85
2022/06/16 10:33:22;;;;;;;2.17;0.57;;;22.60;44.80;;;;;;5070228;28;20106;-83
2022/06/16 10:36:02;;;;;;;1.70;0.60;;;23.50;45.60;;;;;;5045990;28;20062;-83
2022/06/16 10:38:35;;;;;;;0.75;0.40;;;22.90;43.00;;;;;;5040374;28;20480;-83
2022/06/16 10:41:07;;;;;;;0.60;0.40;;;23.50;42.20;;;;;;5064072;28;20131;-83
2022/06/16 10:43:38;;;;;;;0.52;0.32;;;23.20;43.20;;;;;;5061392;28;20037;-83
2022/06/16 10:46:31;;;;;;;2.22;0.47;;;22.90;42.50;;;;;;5057103;28;20352;-84
2022/06/16 10:49:00;;;;;;;2.17;0.60;;;22.90;42.50;;;;;;5040128;28;20115;-83
2022/06/16 10:51:29;;;;;;;1.90;0.57;;;23.20;45.00;;;;;;5048073;28;20040;-84
2022/06/16 10:54:14;;;;;;;2.38;0.40;;;22.50;43.20;;;;;;5045423;28;20143;-83
2022/06/16 10:56:40;;;;;;;0.93;0.30;;;23.50;43.80;;;;;;5057860;28;21128;-83
2022/06/16 10:59:20;;;;;;;1.77;0.47;;;24.10;44.30;;;;;;5063434;28;20424;-83
2022/06/16 11:02:08;;;;;;;5.32;1.05;;;24.20;41.00;;;;;;5055446;28;20017;-83
2022/06/16 11:04:39;;;;;;;1.73;0.80;;;24.60;42.80;;;;;;5040629;28;20067;-81
2022/06/16 11:07:09;;;;;;;2.83;1.00;;;24.90;44.10;;;;;;5054253;28;20036;-81
2022/06/16 11:09:35;;;;;;;3.13;1.00;;;24.00;42.00;;;;;;5065687;28;20094;-81
2022/06/16 11:12:12;;;;;;;1.48;0.57;;;24.30;42.00;;;;;;5065916;28;20032;-81
2022/06/16 11:14:54;;;;;;;3.67;0.77;;;24.20;42.80;;;;;;5068797;28;20033;-81
2022/06/16 11:17:26;;;;;;;3.17;0.80;;;24.80;41.70;;;;;;5045777;28;20513;-81
2022/06/16 11:20:03;;;;;;;2.88;0.88;;;24.60;42.50;;;;;;5069662;28;20116;-81
2022/06/16 11:22:34;;;;;;;1.42;0.60;;;25.00;43.00;;;;;;5067357;28;20024;-80
2022/06/16 11:25:21;;;;;;;4.97;0.80;;;25.30;44.10;;;;;;5050680;28;20472;-83
2022/06/16 11:27:59;;;;;;;2.80;0.63;;;25.10;41.90;;;;;;5065466;28;20021;-83
2022/06/16 11:30:36;;;;;;;3.78;0.80;;;24.50;39.10;;;;;;5053538;28;20082;-83
2022/06/16 11:33:04;;;;;;;4.22;1.13;;;24.50;41.90;;;;;;5042636;28;20064;-83
2022/06/16 11:35:55;;;;;;;1.77;0.52;;;24.90;43.40;;;;;;5044999;28;20060;-83
2022/06/16 11:38:30;;;;;;;;;;;25.10;39.80;;;;;;5056841;28;20028;-83
2022/06/16 11:41:07;;;;;;;2.25;0.60;;;24.80;39.00;;;;;;5059277;28;20006;-83
2022/06/16 11:44:00;;;;;;;1.42;0.55;;;25.30;40.50;;;;;;5050427;28;20506;-83
2022/06/16 11:46:41;;;;;;;3.95;0.77;;;25.40;40.10;;;;;;5047842;28;20368;-83
2022/06/16 11:49:24;;;;;;;2.92;0.60;;;26.90;37.50;;;;;;5063653;28;20025;-83
2022/06/16 11:52:16;;;;;;;2.03;0.55;;;25.50;39.10;;;;;;5060829;28;20101;-85
2022/06/16 11:54:41;;;;;;;3.08;0.90;;;24.80;40.10;;;;;;5063589;28;20519;-84
2022/06/16 11:57:41;;;;;;;3.58;1.08;;;23.50;41.90;;;;;;5056144;28;20028;-83
2022/06/16 12:00:21;;;;;;;2.27;0.67;;;24.60;42.10;;;;;;5056319;28;20056;-83
2022/06/16 12:02:57;;;;;;;4.28;1.27;;;25.40;40.80;;;;;;5071539;28;20033;-84
2022/06/16 12:05:33;;;;;;;3.42;1.17;;;26.00;37.90;;;;;;5052213;28;20500;-83
2022/06/16 12:08:13;;;;;;;3.25;0.77;;;25.80;39.30;;;;;;5054455;28;20515;-84
2022/06/16 12:10:44;;;;;;;3.63;0.77;;;25.30;39.70;;;;;;5062876;28;20030;-83
2022/06/16 12:13:16;;;;;;;1.85;0.60;;;25.40;42.40;;;;;;5069610;28;20036;-84
2022/06/16 12:15:52;;;;;;;6.55;1.00;;;25.30;41.70;;;;;;5070930;28;20090;-83
2022/06/16 12:18:37;;;;;;;3.28;0.73;;;25.60;39.30;;;;;;5066934;28;20039;-83
2022/06/16 12:21:14;;;;;;;3.17;0.90;;;26.30;38.00;;;;;;5044707;28;20039;-83
2022/06/16 12:23:54;;;;;;;2.63;0.57;;;26.60;37.10;;;;;;5067874;28;20392;-83
2022/06/16 12:26:29;;;;;;;;;;;26.60;36.50;;;;;;5050920;28;20020;-84
2022/06/16 12:29:31;;;;;;;3.08;0.65;;;26.30;38.10;;;;;;5066233;28;19908;-83
2022/06/16 12:32:13;;;;;;;3.83;1.00;;;25.90;39.50;;;;;;4994157;28;20102;-83
2022/06/16 12:34:57;;;;;;;4.68;0.98;;;27.50;37.60;;;;;;5068060;28;20120;-83
2022/06/16 12:37:31;;;;;;;2.80;0.88;;;28.20;38.90;;;;;;5053181;28;20024;-82
2022/06/16 12:40:03;;;;;;;1.45;0.80;;;28.40;38.10;;;;;;5053049;28;20024;-82
2022/06/16 12:42:42;;;;;;;2.50;0.70;;;28.10;36.70;;;;;;5051801;28;20031;-82
2022/06/16 12:45:16;;;;;;;4.13;0.93;;;27.60;37.60;;;;;;5058109;28;20020;-81
2022/06/16 12:47:50;;;;;;;4.28;0.70;;;25.90;38.00;;;;;;5050974;28;20031;-81
2022/06/16 12:50:27;;;;;;;2.05;0.70;;;26.70;37.40;;;;;;5062094;28;20032;-84
2022/06/16 12:53:03;;;;;;;2.55;0.80;;;26.80;36.10;;;;;;5051987;28;20036;-83
2022/06/16 12:55:45;;;;;;;2.25;0.60;;;26.40;37.50;;;;;;5050953;28;20025;-84
2022/06/16 12:58:11;;;;;;;1.42;0.50;;;26.70;37.90;;;;;;5042563;28;20033;-84
2022/06/16 13:00:40;;;;;;;3.03;0.80;;;27.50;37.40;;;;;;5063013;28;20392;-84
2022/06/16 13:03:30;;;;;;;2.70;0.50;;;27.00;36.60;;;;;;5068545;28;20036;-83
2022/06/16 13:05:57;;;;;;;1.15;0.40;;;27.40;35.50;;;;;;5028480;28;20498;-83
2022/06/16 13:08:25;;;;;;;5.70;0.82;;;27.90;36.50;;;;;;5071785;28;20063;-84
2022/06/16 13:10:59;;;;;;;2.25;0.60;;;27.30;36.70;;;;;;5044343;28;20122;-84
2022/06/16 13:13:30;;;;;;;1.45;0.45;;;27.70;34.80;;;;;;5065499;28;20074;-82
2022/06/16 13:16:00;;;;;;;3.50;0.82;;;29.00;34.30;;;;;;5069913;28;20036;-82
2022/06/16 13:18:30;;;;;;;1.33;0.50;;;29.10;32.00;;;;;;5069352;28;20121;-82
2022/06/16 13:21:00;;;;;;;;;;;28.20;33.50;;;;;;5069007;28;20064;-82
2022/06/16 13:23:34;;;;;;;1.58;0.43;;;28.30;35.00;;;;;;5071517;28;19916;-83
2022/06/16 13:26:14;;;;;;;1.13;0.65;;;27.50;36.70;;;;;;5050198;28;20545;-82